Time;durP1;ratioP1;P1;durP2;ratioP2;P2;SDS_P1;SDS_P2;PMS_P1;PMS_P2;Temp;Humidity;BMP_temperature;BMP_pressure;BME280_temperature;BME280_humidity;BME280_pressure;Samples;Min_cycle;Max_cycle;Signal;HPM_P1;HPM_P2
2021/10/29 00:02:05;;;;;;;;;;;;;;;;;;5109016;28;19939;-77
2021/10/29 00:04:32;;;;;;;;;;;;;;;;;;5109055;28;20260;-77
2021/10/29 00:06:59;;;;;;;;;;;;;;;;;;5108382;28;19943;-79
2021/10/29 00:09:30;;;;;;;;;;;;;;;;;;5108810;28;19935;-78
2021/10/29 00:11:57;;;;;;;;;;;;;;;;;;5108473;28;19928;-78
2021/10/29 00:14:25;;;;;;;;;;;;;;;;;;5108285;28;19939;-78
2021/10/29 00:16:52;;;;;;;;;;;;;;;;;;5108584;28;20265;-78
2021/10/29 00:19:20;;;;;;;;;;;;;;;;;;5124511;28;19971;-77
2021/10/29 00:21:47;;;;;;;;;;;;;;;;;;5128563;27;19923;-77
2021/10/29 00:24:14;;;;;;;;;;;;;;;;;;5128734;28;19924;-77
2021/10/29 00:26:42;;;;;;;;;;;;;;;;;;5128847;28;19934;-77
2021/10/29 00:29:09;;;;;;;;;;;;;;;;;;5126763;27;19932;-77
2021/10/29 00:31:37;;;;;;;;;;;;;;;;;;5114667;28;19928;-77
2021/10/29 00:34:04;;;;;;;;;;;;;;;;;;5114744;28;19928;-77
2021/10/29 00:36:31;;;;;;;;;;;;;;;;;;5114533;28;19939;-78
2021/10/29 00:38:58;;;;;;;;;;;;;;;;;;5114847;28;19943;-77
2021/10/29 00:41:25;;;;;;;;;;;;;;;;;;5114672;28;19938;-77
2021/10/29 00:43:55;;;;;;;;;;;;;;;;;;5114557;28;20403;-77
2021/10/29 00:46:23;;;;;;;;;;;;;;;;;;5114480;28;19938;-77
2021/10/29 00:48:51;;;;;;;;;;;;;;;;;;5114084;28;19928;-77
2021/10/29 00:51:19;;;;;;;;;;;;;;;;;;5114451;28;20341;-77
2021/10/29 00:53:46;;;;;;;;;;;;;;;;;;5114630;28;19923;-77
2021/10/29 00:56:13;;;;;;;;;;;;;;;;;;5114197;28;19931;-77
2021/10/29 00:58:40;;;;;;;;;;;;;;;;;;5114466;28;19955;-76
2021/10/29 01:01:09;;;;;;;;;;;;;;;;;;5114189;28;19934;-77
2021/10/29 01:03:37;;;;;;;;;;;;;;;;;;5114615;28;20353;-78
2021/10/29 01:06:04;;;;;;;;;;;;;;;;;;5114667;28;19936;-77
2021/10/29 01:08:31;;;;;;;;;;;;;;;;;;5114008;28;19924;-77
2021/10/29 01:10:59;;;;;;;;;;;;;;;;;;5114238;28;19950;-76
2021/10/29 01:13:27;;;;;;;;;;;;;;;;;;5113907;28;20018;-78
2021/10/29 01:15:54;;;;;;;;;;;;;;;;;;5113659;28;20418;-77
2021/10/29 01:18:22;;;;;;;;;;;;;;;;;;5113616;28;19928;-77
2021/10/29 01:20:51;;;;;;;;;;;;;;;;;;5114235;28;19924;-78
2021/10/29 01:23:18;;;;;;;;;;;;;;;;;;5114081;28;19928;-77
2021/10/29 01:25:45;;;;;;;;;;;;;;;;;;5113854;28;19928;-78
2021/10/29 01:28:13;;;;;;;;;;;;;;;;;;5113807;28;19935;-78
2021/10/29 01:30:40;;;;;;;;;;;;;;;;;;5113785;28;20332;-77
2021/10/29 01:33:07;;;;;;;;;;;;;;;;;;5113800;28;19923;-77
2021/10/29 01:35:34;;;;;;;;;;;;;;;;;;5113699;28;19923;-76
2021/10/29 01:38:03;;;;;;;;;;;;;;;;;;5113593;28;19980;-76
2021/10/29 01:40:30;;;;;;;;;;;;;;;;;;5113674;28;19931;-76
2021/10/29 01:42:57;;;;;;;;;;;;;;;;;;5112516;28;20257;-78
2021/10/29 01:45:24;;;;;;;;;;;;;;;;;;5113391;28;20299;-77
2021/10/29 01:47:51;;;;;;;;;;;;;;;;;;5113397;28;19928;-77
2021/10/29 01:50:18;;;;;;;;;;;;;;;;;;5113475;28;19927;-77
2021/10/29 01:52:45;;;;;;;;;;;;;;;;;;5113942;28;19943;-77
2021/10/29 01:55:14;;;;;;;;;;;;;;;;;;5112984;28;19927;-78
2021/10/29 01:57:41;;;;;;;;;;;;;;;;;;5113104;28;19939;-77
2021/10/29 02:00:08;;;;;;;;;;;;;;;;;;5113027;28;20276;-78
2021/10/29 02:02:35;;;;;;;;;;;;;;;;;;5113365;28;19927;-77
2021/10/29 02:05:03;;;;;;;;;;;;;;;;;;5113169;28;19928;-78
2021/10/29 02:07:30;;;;;;;;;;;;;;;;;;5112622;28;19924;-78
2021/10/29 02:09:57;;;;;;;;;;;;;;;;;;5112950;28;20363;-78
2021/10/29 02:12:26;;;;;;;;;;;;;;;;;;5112884;28;19954;-78
2021/10/29 02:14:53;;;;;;;;;;;;;;;;;;5112920;28;19936;-76
2021/10/29 02:17:24;;;;;;;;;;;;;;;;;;5113222;28;19931;-77
2021/10/29 02:19:51;;;;;;;;;;;;;;;;;;5112567;28;19932;-77
2021/10/29 02:22:18;;;;;;;;;;;;;;;;;;5112886;28;19928;-76
2021/10/29 02:24:45;;;;;;;;;;;;;;;;;;5112603;28;19939;-78
2021/10/29 02:27:12;;;;;;;;;;;;;;;;;;5112543;28;20368;-77
2021/10/29 02:29:40;;;;;;;;;;;;;;;;;;5112784;28;20260;-77
2021/10/29 02:32:08;;;;;;;;;;;;;;;;;;5112764;28;19935;-77
2021/10/29 02:34:35;;;;;;;;;;;;;;;;;;5112327;28;19927;-78
2021/10/29 02:37:02;;;;;;;;;;;;;;;;;;5112711;28;19923;-78
2021/10/29 02:39:30;;;;;;;;;;;;;;;;;;5112440;28;19951;-78
2021/10/29 02:42:01;;;;;;;;;;;;;;;;;;5112431;28;20000;-78
2021/10/29 02:44:28;;;;;;;;;;;;;;;;;;5112421;28;19928;-78
2021/10/29 02:46:57;;;;;;;;;;;;;;;;;;5112640;28;19939;-78
2021/10/29 02:49:24;;;;;;;;;;;;;;;;;;5112047;28;19934;-78
2021/10/29 02:51:51;;;;;;;;;;;;;;;;;;5112137;28;19931;-77
2021/10/29 02:54:18;;;;;;;;;;;;;;;;;;5111823;28;19927;-77
2021/10/29 02:56:45;;;;;;;;;;;;;;;;;;5112301;28;19939;-78
2021/10/29 02:59:12;;;;;;;;;;;;;;;;;;5112195;28;19934;-78
2021/10/29 03:01:39;;;;;;;;;;;;;;;;;;5111859;28;20276;-78
2021/10/29 03:04:08;;;;;;;;;;;;;;;;;;5112234;28;19931;-77
2021/10/29 03:06:35;;;;;;;;;;;;;;;;;;5111831;28;20009;-78
2021/10/29 03:09:02;;;;;;;;;;;;;;;;;;5111972;28;19934;-77
2021/10/29 03:11:29;;;;;;;;;;;;;;;;;;5112551;28;20276;-77
2021/10/29 03:13:56;;;;;;;;;;;;;;;;;;5112520;28;19928;-77
2021/10/29 03:16:24;;;;;;;;;;;;;;;;;;5112465;28;19923;-77
2021/10/29 03:18:51;;;;;;;;;;;;;;;;;;5111714;28;19931;-79
2021/10/29 03:21:19;;;;;;;;;;;;;;;;;;5111955;28;20348;-78
2021/10/29 03:23:46;;;;;;;;;;;;;;;;;;5112373;28;19981;-79
2021/10/29 03:26:13;;;;;;;;;;;;;;;;;;5112284;28;19938;-79
2021/10/29 03:28:40;;;;;;;;;;;;;;;;;;5112222;28;19924;-77
2021/10/29 03:31:07;;;;;;;;;;;;;;;;;;5112099;28;20288;-78
2021/10/29 03:33:38;;;;;;;;;;;;;;;;;;5112162;28;19927;-77
2021/10/29 03:36:05;;;;;;;;;;;;;;;;;;5112012;28;19927;-78
2021/10/29 03:41:20;;;;;;;;;;;;;;;;;;5112444;28;19938;-77
2021/10/29 03:43:51;;;;;;;;;;;;;;;;;;5111950;28;19950;-78
2021/10/29 03:46:20;;;;;;;;;;;;;;;;;;5112125;28;19924;-77
2021/10/29 03:48:57;;;;;;;;;;;;;;;;;;5111478;28;20326;-77
2021/10/29 03:51:27;;;;;;;;;;;;;;;;;;5112010;28;19981;-78
2021/10/29 03:53:58;;;;;;;;;;;;;;;;;;5111737;28;19928;-77
2021/10/29 03:56:27;;;;;;;;;;;;;;;;;;5111605;28;19938;-77
2021/10/29 03:58:55;;;;;;;;;;;;;;;;;;5111397;28;19924;-80
2021/10/29 04:01:22;;;;;;;;;;;;;;;;;;5111587;28;20268;-79
2021/10/29 04:03:50;;;;;;;;;;;;;;;;;;5111891;28;19924;-78
2021/10/29 04:06:17;;;;;;;;;;;;;;;;;;5114946;28;19924;-77
2021/10/29 04:08:44;;;;;;;;;;;;;;;;;;5115395;28;20366;-79
2021/10/29 04:11:13;;;;;;;;;;;;;;;;;;5115389;28;19928;-79
2021/10/29 04:13:44;;;;;;;;;;;;;;;;;;5115130;28;19923;-78
2021/10/29 04:16:11;;;;;;;;;;;;;;;;;;5115486;27;19924;-79
2021/10/29 04:18:38;;;;;;;;;;;;;;;;;;5114583;28;19928;-79
2021/10/29 04:21:06;;;;;;;;;;;;;;;;;;5114921;28;19923;-79
2021/10/29 04:23:33;;;;;;;;;;;;;;;;;;5115296;28;19955;-77
2021/10/29 04:26:00;;;;;;;;;;;;;;;;;;5114885;28;19924;-79
2021/10/29 04:28:29;;;;;;;;;;;;;;;;;;5114694;28;20372;-78
2021/10/29 04:30:59;;;;;;;;;;;;;;;;;;5115214;28;19935;-78
2021/10/29 04:33:26;;;;;;;;;;;;;;;;;;5114857;28;19923;-77
2021/10/29 04:35:54;;;;;;;;;;;;;;;;;;5114850;28;19928;-77
2021/10/29 04:38:21;;;;;;;;;;;;;;;;;;5114596;28;19928;-78
2021/10/29 04:40:49;;;;;;;;;;;;;;;;;;5113277;28;19928;-79
2021/10/29 04:43:17;;;;;;;;;;;;;;;;;;5104761;28;19924;-79
2021/10/29 04:45:45;;;;;;;;;;;;;;;;;;5097059;28;19928;-77
2021/10/29 04:48:12;;;;;;;;;;;;;;;;;;5094950;28;20386;-77
2021/10/29 04:50:39;;;;;;;;;;;;;;;;;;5093979;28;20011;-77
2021/10/29 04:53:06;;;;;;;;;;;;;;;;;;5110382;28;19934;-78
2021/10/29 04:55:34;;;;;;;;;;;;;;;;;;5098840;28;20035;-78
2021/10/29 04:58:01;;;;;;;;;;;;;;;;;;5102853;28;19928;-78
2021/10/29 05:00:28;;;;;;;;;;;;;;;;;;5093601;28;20042;-77
2021/10/29 05:02:58;;;;;;;;;;;;;;;;;;5111617;28;19979;-78
2021/10/29 05:05:25;;;;;;;;;;;;;;;;;;5107068;28;19928;-77
2021/10/29 05:07:52;;;;;;;;;;;;;;;;;;5092871;28;19928;-77
2021/10/29 05:10:19;;;;;;;;;;;;;;;;;;5092223;28;19923;-77
2021/10/29 05:12:47;;;;;;;;;;;;;;;;;;5102463;28;20282;-77
2021/10/29 05:15:16;;;;;;;;;;;;;;;;;;5113101;28;19923;-78
2021/10/29 05:17:43;;;;;;;;;;;;;;;;;;5112953;28;19989;-77
2021/10/29 05:20:12;;;;;;;;;;;;;;;;;;5113029;28;20159;-79
2021/10/29 05:22:39;;;;;;;;;;;;;;;;;;5096235;28;20193;-77
2021/10/29 05:25:07;;;;;;;;;;;;;;;;;;5108087;28;20352;-78
2021/10/29 05:27:34;;;;;;;;;;;;;;;;;;5102736;27;19939;-77
2021/10/29 05:30:02;;;;;;;;;;;;;;;;;;5102013;28;19943;-78
2021/10/29 05:32:29;;;;;;;;;;;;;;;;;;5096516;28;19931;-77
2021/10/29 05:35:00;;;;;;;;;;;;;;;;;;5106560;28;20322;-79
2021/10/29 05:37:29;;;;;;;;;;;;;;;;;;5099744;28;19981;-79
2021/10/29 05:39:56;;;;;;;;;;;;;;;;;;5097118;28;19939;-79
2021/10/29 05:42:23;;;;;;;;;;;;;;;;;;5111782;28;20332;-78
2021/10/29 05:44:51;;;;;;;;;;;;;;;;;;5111329;28;20352;-77
2021/10/29 05:47:18;;;;;;;;;;;;;;;;;;5110996;28;19939;-77
2021/10/29 05:49:45;;;;;;;;;;;;;;;;;;5095783;28;19928;-76
2021/10/29 05:52:16;;;;;;;;;;;;;;;;;;5087903;28;20269;-78
2021/10/29 05:57:26;;;;;;;;;;;;;;;;;;5088558;28;19967;-79
2021/10/29 05:59:53;;;;;;;;;;;;;;;;;;5089030;28;19928;-79
2021/10/29 06:02:20;;;;;;;;;;;;;;;;;;5088614;28;19951;-78
2021/10/29 06:04:48;;;;;;;;;;;;;;;;;;5089145;28;20319;-78
2021/10/29 06:07:15;;;;;;;;;;;;;;;;;;5101153;28;19945;-79
2021/10/29 06:09:42;;;;;;;;;;;;;;;;;;5109655;28;19928;-78
2021/10/29 06:12:11;;;;;;;;;;;;;;;;;;5109407;28;19931;-78
2021/10/29 06:14:38;;;;;;;;;;;;;;;;;;5108975;28;19942;-77
2021/10/29 06:17:09;;;;;;;;;;;;;;;;;;5109662;28;19928;-78
2021/10/29 06:19:36;;;;;;;;;;;;;;;;;;5109190;28;19989;-79
2021/10/29 06:22:08;;;;;;;;;;;;;;;;;;5090335;28;19934;-77
2021/10/29 06:24:36;;;;;;;;;;;;;;;;;;5089083;28;20334;-79
2021/10/29 06:27:09;;;;;;;;;;;;;;;;;;5088144;28;19951;-79
2021/10/29 06:29:37;;;;;;;;;;;;;;;;;;5088527;28;20358;-77
2021/10/29 06:32:06;;;;;;;;;;;;;;;;;;5104514;28;19929;-77
2021/10/29 06:34:34;;;;;;;;;;;;;;;;;;5096310;28;20021;-77
2021/10/29 06:37:01;;;;;;;;;;;;;;;;;;5088402;28;19932;-77
2021/10/29 06:39:28;;;;;;;;;;;;;;;;;;5088866;28;19928;-77
2021/10/29 06:41:56;;;;;;;;;;;;;;;;;;5088137;28;19932;-77
2021/10/29 06:44:31;;;;;;;;;;;;;;;;;;5088519;28;19947;-77
2021/10/29 06:47:33;;;;;;;;;;;;;;;;;;5088730;28;19928;-77
2021/10/29 07:01:02;;;;;;;;;;;;;;;;;;5108089;28;19988;-76
2021/10/29 07:12:08;;;;;;;;;;;;;;;;;;5086653;28;19935;-80
2021/10/29 07:42:18;;;;;;;;;;;;;;;;;;5111313;28;19939;-79
2021/10/29 07:44:47;;;;;;;;;;;;;;;;;;5111655;28;19932;-79
2021/10/29 07:47:14;;;;;;;;;;;;;;;;;;5112761;28;19993;-79
2021/10/29 07:49:41;;;;;;;;;;;;;;;;;;5114686;28;20287;-78
2021/10/29 07:52:10;;;;;;;;;;;;;;;;;;5114230;28;19927;-79
2021/10/29 07:54:42;;;;;;;;;;;;;;;;;;5111471;28;19928;-79
2021/10/29 07:57:09;;;;;;;;;;;;;;;;;;5108449;28;19928;-80
2021/10/29 07:59:36;;;;;;;;;;;;;;;;;;5091277;28;19927;-80
2021/10/29 08:02:04;;;;;;;;;;;;;;;;;;5090051;28;19928;-80
2021/10/29 08:04:31;;;;;;;;;;;;;;;;;;5091498;28;19924;-80
2021/10/29 08:06:58;;;;;;;;;;;;;;;;;;5090260;28;19934;-79
2021/10/29 08:09:27;;;;;;;;;;;;;;;;;;5091594;28;19928;-81
2021/10/29 08:11:54;;;;;;;;;;;;;;;;;;5094460;28;19939;-78
2021/10/29 08:14:22;;;;;;;;;;;;;;;;;;5105973;28;19935;-78
2021/10/29 08:16:50;;;;;;;;;;;;;;;;;;5111102;28;20279;-78
2021/10/29 08:19:21;;;;;;;;;;;;;;;;;;5098417;28;19924;-78
2021/10/29 08:21:48;;;;;;;;;;;;;;;;;;5107641;28;20261;-78
2021/10/29 08:24:15;;;;;;;;;;;;;;;;;;5111648;28;19927;-78
2021/10/29 08:26:43;;;;;;;;;;;;;;;;;;5112720;28;19981;-78
2021/10/29 08:29:11;;;;;;;;;;;;;;;;;;5113596;28;19923;-78
2021/10/29 08:31:38;;;;;;;;;;;;;;;;;;5112741;28;19930;-77
2021/10/29 08:34:05;;;;;;;;;;;;;;;;;;5103452;28;19939;-78
2021/10/29 08:36:35;;;;;;;;;;;;;;;;;;5091497;28;19943;-78
2021/10/29 08:39:05;;;;;;;;;;;;;;;;;;5092242;28;19923;-78
2021/10/29 08:41:32;;;;;;;;;;;;;;;;;;5100707;28;19928;-78
2021/10/29 08:44:01;;;;;;;;;;;;;;;;;;5115006;28;19934;-78
2021/10/29 08:46:28;;;;;;;;;;;;;;;;;;5111703;28;19993;-77
2021/10/29 08:48:57;;;;;;;;;;;;;;;;;;5110688;28;19928;-78
2021/10/29 08:51:24;;;;;;;;;;;;;;;;;;5111188;28;20030;-78
2021/10/29 08:53:52;;;;;;;;;;;;;;;;;;5111110;28;19927;-77
2021/10/29 08:56:19;;;;;;;;;;;;;;;;;;5111939;28;20398;-78
2021/10/29 08:59:04;;;;;;;;;;;;;;;;;;5111859;28;19931;-78
2021/10/29 09:01:45;;;;;;;;;;;;;;;;;;5111701;28;19924;-79
2021/10/29 09:04:13;;;;;;;;;;;;;;;;;;5110971;28;19939;-78
2021/10/29 09:06:46;;;;;;;;;;;;;;;;;;5110879;28;20371;-78
2021/10/29 09:09:28;;;;;;;;;;;;;;;;;;5110411;28;19928;-78
2021/10/29 09:17:43;;;;;;;;;;;;;;;;;;5096072;28;20004;-77
2021/10/29 09:31:27;;;;;;;;;;;;;;;;;;5113113;28;19938;-78
2021/10/29 09:33:57;;;;;;;;;;;;;;;;;;5113948;28;19989;-79
2021/10/29 09:36:26;;;;;;;;;;;;;;;;;;5113337;28;20125;-78
2021/10/29 09:38:57;;;;;;;;;;;;;;;;;;5115988;28;19963;-78
2021/10/29 09:41:24;;;;;;;;;;;;;;;;;;5112007;28;19931;-81
2021/10/29 09:43:54;;;;;;;;;;;;;;;;;;5114662;28;19931;-78
2021/10/29 09:46:32;;;;;;;;;;;;;;;;;;5112933;28;19959;-77
2021/10/29 09:49:09;;;;;;;;;;;;;;;;;;5110082;28;19938;-82
2021/10/29 09:51:48;;;;;;;;;;;;;;;;;;5108555;28;19970;-79
2021/10/29 09:54:18;;;;;;;;;;;;;;;;;;5096966;28;20365;-78
2021/10/29 09:56:53;;;;;;;;;;;;;;;;;;5090087;28;20053;-78
2021/10/29 09:59:20;;;;;;;;;;;;;;;;;;5103457;28;20364;-79
2021/10/29 10:01:48;;;;;;;;;;;;;;;;;;5112654;28;19927;-78
2021/10/29 10:04:18;;;;;;;;;;;;;;;;;;5111861;28;19927;-78
2021/10/29 10:06:45;;;;;;;;;;;;;;;;;;5109764;28;20218;-78
2021/10/29 10:09:13;;;;;;;;;;;;;;;;;;5110271;28;19938;-79
2021/10/29 10:11:43;;;;;;;;;;;;;;;;;;5110567;28;19923;-81
2021/10/29 10:14:11;;;;;;;;;;;;;;;;;;5098534;28;20353;-79
2021/10/29 10:16:40;;;;;;;;;;;;;;;;;;5092197;28;20326;-78
2021/10/29 10:19:07;;;;;;;;;;;;;;;;;;5108597;28;19950;-78
2021/10/29 10:21:40;;;;;;;;;;;;;;;;;;5111017;28;20009;-78
2021/10/29 10:24:12;;;;;;;;;;;;;;;;;;5113556;28;19924;-79
2021/10/29 10:26:52;;;;;;;;;;;;;;;;;;5113222;28;19931;-78
2021/10/29 10:40:48;;;;;;;;;;;;;;;;;;5092353;28;19932;-79
2021/10/29 10:43:21;;;;;;;;;;;;;;;;;;5092678;28;19963;-78
2021/10/29 10:45:53;;;;;;;;;;;;;;;;;;5092053;28;19971;-78
2021/10/29 10:48:24;;;;;;;;;;;;;;;;;;5091586;28;19935;-78
2021/10/29 10:50:54;;;;;;;;;;;;;;;;;;5091726;28;19924;-77
2021/10/29 10:53:28;;;;;;;;;;;;;;;;;;5091871;28;19928;-77
2021/10/29 10:58:59;;;;;;;;;;;;;;;;;;5080025;28;20353;-77
2021/10/29 11:01:47;;;;;;;;;;;;;;;;;;5091470;28;19979;-77
2021/10/29 11:04:22;;;;;;;;;;;;;;;;;;5091869;28;19985;-79
2021/10/29 11:07:08;;;;;;;;;;;;;;;;;;5091619;28;19989;-77
2021/10/29 11:09:55;;;;;;;;;;;;;;;;;;5091395;28;20358;-78
2021/10/29 11:12:22;;;;;;;;;;;;;;;;;;5098355;28;19931;-78
2021/10/29 11:15:05;;;;;;;;;;;;;;;;;;5111654;28;19928;-78
2021/10/29 11:17:42;;;;;;;;;;;;;;;;;;5111663;28;19927;-78
2021/10/29 11:20:11;;;;;;;;;;;;;;;;;;5111664;28;19930;-76
2021/10/29 11:22:42;;;;;;;;;;;;;;;;;;5111777;28;20018;-77
2021/10/29 11:25:11;;;;;;;;;;;;;;;;;;5112374;28;19935;-78
2021/10/29 11:27:41;;;;;;;;;;;;;;;;;;5111787;28;20335;-79
2021/10/29 11:30:08;;;;;;;;;;;;;;;;;;5112332;28;20018;-79
2021/10/29 11:32:37;;;;;;;;;;;;;;;;;;5113653;28;19928;-78
2021/10/29 11:35:06;;;;;;;;;;;;;;;;;;5111557;28;20330;-79
2021/10/29 11:37:34;;;;;;;;;;;;;;;;;;5111976;28;19992;-80
2021/10/29 11:40:01;;;;;;;;;;;;;;;;;;5112408;28;20260;-79
2021/10/29 11:42:30;;;;;;;;;;;;;;;;;;5113269;28;19924;-77
2021/10/29 11:44:58;;;;;;;;;;;;;;;;;;5111869;28;20248;-79
2021/10/29 11:47:26;;;;;;;;;;;;;;;;;;5113050;28;20209;-78
2021/10/29 11:49:53;;;;;;;;;;;;;;;;;;5114971;28;19935;-77
2021/10/29 11:52:21;;;;;;;;;;;;;;;;;;5115055;28;19927;-78
2021/10/29 11:54:51;;;;;;;;;;;;;;;;;;5116794;28;19963;-77
2021/10/29 11:57:32;;;;;;;;;;;;;;;;;;5120302;28;19930;-78
2021/10/29 12:00:18;;;;;;;;;;;;;;;;;;5113313;28;20284;-80
2021/10/29 12:05:54;;;;;;;;;;;;;;;;;;5112241;28;19934;-78
2021/10/29 12:08:22;;;;;;;;;;;;;;;;;;5111192;28;20010;-78
2021/10/29 12:10:51;;;;;;;;;;;;;;;;;;5111374;28;19982;-78
2021/10/29 12:13:19;;;;;;;;;;;;;;;;;;5115563;28;19923;-78
2021/10/29 12:15:47;;;;;;;;;;;;;;;;;;5107148;28;20356;-78
2021/10/29 12:18:14;;;;;;;;;;;;;;;;;;5093684;28;19932;-78
2021/10/29 12:20:45;;;;;;;;;;;;;;;;;;5093183;28;19924;-78
2021/10/29 12:23:17;;;;;;;;;;;;;;;;;;5095284;28;19935;-79
2021/10/29 12:25:54;;;;;;;;;;;;;;;;;;5094542;28;20368;-78
2021/10/29 12:28:25;;;;;;;;;;;;;;;;;;5094434;28;20015;-78
2021/10/29 12:30:57;;;;;;;;;;;;;;;;;;5095877;28;20257;-78
2021/10/29 12:33:59;;;;;;;;;;;;;;;;;;5094513;28;19941;-78
2021/10/29 12:58:59;;;;;;;;;;;;;;;;;;5095218;28;19951;-81
2021/10/29 13:01:29;;;;;;;;;;;;;;;;;;5094256;28;19982;-80
2021/10/29 13:03:59;;;;;;;;;;;;;;;;;;5094735;28;20005;-81
2021/10/29 13:06:30;;;;;;;;;;;;;;;;;;5093998;28;19960;-79
2021/10/29 13:08:58;;;;;;;;;;;;;;;;;;5094229;28;20403;-79
2021/10/29 13:11:26;;;;;;;;;;;;;;;;;;5094471;28;19928;-79
2021/10/29 13:13:56;;;;;;;;;;;;;;;;;;5113720;28;19992;-78
2021/10/29 13:16:24;;;;;;;;;;;;;;;;;;5115163;28;19923;-79
2021/10/29 13:24:56;;;;;;;;;;;;;;;;;;5090773;28;19939;-79
2021/10/29 13:27:42;;;;;;;;;;;;;;;;;;5090548;28;19934;-79
2021/10/29 13:35:50;;;;;;;;;;;;;;;;;;5088809;28;20025;-80
2021/10/29 13:54:57;;;;;;;;;;;;;;;;;;5088284;28;19936;-79
2021/10/29 14:24:22;;;;;;;;;;;;;;;;;;5064040;28;19939;-79
2021/10/29 14:28:38;;;;;;;;;;;;;;;;;;5065812;28;20023;-79
2021/10/29 14:31:12;;;;;;;;;;;;;;;;;;5063387;28;20450;-79
2021/10/29 14:33:44;;;;;;;;;;;;;;;;;;5076000;28;20018;-79
2021/10/29 14:36:12;;;;;;;;;;;;;;;;;;5093982;28;19935;-79
2021/10/29 14:38:48;;;;;;;;;;;;;;;;;;5093939;28;19932;-79
2021/10/29 14:41:18;;;;;;;;;;;;;;;;;;5094530;28;19997;-78
2021/10/29 14:43:50;;;;;;;;;;;;;;;;;;5096092;28;20016;-79
2021/10/29 14:49:11;;;;;;;;;;;;;;;;;;5089900;28;20016;-80
2021/10/29 15:03:24;;;;;;;;;;;;;;;;;;5110398;27;19920;-80
2021/10/29 15:17:19;;;;;;;;;;;;;;;;;;5109989;28;19938;-81
2021/10/29 15:28:09;;;;;;;;;;;;;;;;;;5109095;28;19924;-78
2021/10/29 15:30:41;;;;;;;;;;;;;;;;;;5109262;28;20117;-80
2021/10/29 15:33:21;;;;;;;;;;;;;;;;;;5109421;28;20024;-80
2021/10/29 15:41:36;;;;;;;;;;;;;;;;;;5108672;28;19935;-79
2021/10/29 15:44:09;;;;;;;;;;;;;;;;;;5108848;28;20009;-78
2021/10/29 15:46:40;;;;;;;;;;;;;;;;;;5109252;28;19938;-78
2021/10/29 15:49:18;;;;;;;;;;;;;;;;;;5108417;28;20264;-79
2021/10/29 15:51:50;;;;;;;;;;;;;;;;;;5108859;28;20390;-79
2021/10/29 15:54:18;;;;;;;;;;;;;;;;;;5108239;28;20011;-79
2021/10/29 15:56:48;;;;;;;;;;;;;;;;;;5108374;28;19975;-78
2021/10/29 15:59:23;;;;;;;;;;;;;;;;;;5109389;28;19988;-78
2021/10/29 16:01:54;;;;;;;;;;;;;;;;;;5119377;28;19971;-77
2021/10/29 16:18:07;;;;;;;;;;;;;;;;;;5094333;28;19935;-80
2021/10/29 16:20:35;;;;;;;;;;;;;;;;;;5094383;28;20190;-78
2021/10/29 16:23:03;;;;;;;;;;;;;;;;;;5094529;28;19924;-78
2021/10/29 16:25:34;;;;;;;;;;;;;;;;;;5095092;28;19924;-79
2021/10/29 16:28:02;;;;;;;;;;;;;;;;;;5094633;28;20364;-78
2021/10/29 16:30:31;;;;;;;;;;;;;;;;;;5094246;28;20313;-80
2021/10/29 16:35:43;;;;;;;;;;;;;;;;;;5093970;28;19935;-80
2021/10/29 16:38:11;;;;;;;;;;;;;;;;;;5093630;28;20376;-79
2021/10/29 16:40:39;;;;;;;;;;;;;;;;;;5093920;28;19935;-80
2021/10/29 16:43:06;;;;;;;;;;;;;;;;;;5093830;28;20095;-80
2021/10/29 16:45:34;;;;;;;;;;;;;;;;;;5093459;28;20389;-77
2021/10/29 16:48:01;;;;;;;;;;;;;;;;;;5093721;28;20352;-78
2021/10/29 16:50:28;;;;;;;;;;;;;;;;;;5093615;28;20280;-78
2021/10/29 16:52:55;;;;;;;;;;;;;;;;;;5095399;28;19950;-78
2021/10/29 16:55:24;;;;;;;;;;;;;;;;;;5095092;28;20006;-78
2021/10/29 16:57:51;;;;;;;;;;;;;;;;;;5095169;28;19939;-80
2021/10/29 17:00:18;;;;;;;;;;;;;;;;;;5095033;28;20273;-78
2021/10/29 17:02:45;;;;;;;;;;;;;;;;;;5095038;28;19928;-78
2021/10/29 17:05:13;;;;;;;;;;;;;;;;;;5094715;28;19928;-78
2021/10/29 17:07:40;;;;;;;;;;;;;;;;;;5094010;28;19993;-78
2021/10/29 17:10:09;;;;;;;;;;;;;;;;;;5094218;28;19929;-80
2021/10/29 17:12:40;;;;;;;;;;;;;;;;;;5101413;28;20349;-79
2021/10/29 17:15:11;;;;;;;;;;;;;;;;;;5115546;28;20026;-77
2021/10/29 17:17:39;;;;;;;;;;;;;;;;;;5115950;28;20326;-80
2021/10/29 17:20:08;;;;;;;;;;;;;;;;;;5115158;28;19928;-78
2021/10/29 17:22:35;;;;;;;;;;;;;;;;;;5115179;28;19942;-79
2021/10/29 17:25:03;;;;;;;;;;;;;;;;;;5113518;28;19924;-79
2021/10/29 17:27:30;;;;;;;;;;;;;;;;;;5114016;28;20332;-78
2021/10/29 17:29:58;;;;;;;;;;;;;;;;;;5115210;28;19946;-78
2021/10/29 17:32:26;;;;;;;;;;;;;;;;;;5115701;28;20010;-78
2021/10/29 17:34:53;;;;;;;;;;;;;;;;;;5116805;28;19924;-79
2021/10/29 17:37:20;;;;;;;;;;;;;;;;;;5115969;28;19928;-78
2021/10/29 17:39:48;;;;;;;;;;;;;;;;;;5114829;28;19924;-79
2021/10/29 17:42:15;;;;;;;;;;;;;;;;;;5114534;28;19931;-78
2021/10/29 17:44:42;;;;;;;;;;;;;;;;;;5115318;28;19983;-77
2021/10/29 17:47:11;;;;;;;;;;;;;;;;;;5114867;28;19932;-82
2021/10/29 17:49:38;;;;;;;;;;;;;;;;;;5114333;28;19924;-79
2021/10/29 17:52:06;;;;;;;;;;;;;;;;;;5114804;28;19931;-77
2021/10/29 17:54:36;;;;;;;;;;;;;;;;;;5115100;28;19923;-77
2021/10/29 17:57:06;;;;;;;;;;;;;;;;;;5114754;28;19927;-78
2021/10/29 17:59:35;;;;;;;;;;;;;;;;;;5113922;28;19934;-78
2021/10/29 18:02:02;;;;;;;;;;;;;;;;;;5114564;28;19924;-78
2021/10/29 18:04:33;;;;;;;;;;;;;;;;;;5114781;28;19981;-78
2021/10/29 18:07:00;;;;;;;;;;;;;;;;;;5114108;28;19928;-78
2021/10/29 18:09:27;;;;;;;;;;;;;;;;;;5113376;28;19924;-80
2021/10/29 18:11:54;;;;;;;;;;;;;;;;;;5112518;28;19970;-78
2021/10/29 18:14:24;;;;;;;;;;;;;;;;;;5113166;28;19931;-80
2021/10/29 18:16:51;;;;;;;;;;;;;;;;;;5113594;28;20268;-78
2021/10/29 18:19:18;;;;;;;;;;;;;;;;;;5113901;28;20375;-83
2021/10/29 18:21:47;;;;;;;;;;;;;;;;;;5113343;28;19932;-77
2021/10/29 18:24:15;;;;;;;;;;;;;;;;;;5113858;28;19927;-80
2021/10/29 18:26:43;;;;;;;;;;;;;;;;;;5112902;28;19924;-80
2021/10/29 18:29:11;;;;;;;;;;;;;;;;;;5113377;28;19954;-78
2021/10/29 18:31:39;;;;;;;;;;;;;;;;;;5113588;28;20131;-77
2021/10/29 18:34:06;;;;;;;;;;;;;;;;;;5112296;28;19943;-79
2021/10/29 18:36:33;;;;;;;;;;;;;;;;;;5111440;28;20594;-78
2021/10/29 18:39:02;;;;;;;;;;;;;;;;;;5111735;28;19927;-78
2021/10/29 18:41:31;;;;;;;;;;;;;;;;;;5112454;28;19928;-78
2021/10/29 18:43:58;;;;;;;;;;;;;;;;;;5112277;28;19923;-79
2021/10/29 18:46:26;;;;;;;;;;;;;;;;;;5112668;28;20258;-79
2021/10/29 18:48:53;;;;;;;;;;;;;;;;;;5111854;28;19934;-80
2021/10/29 18:51:20;;;;;;;;;;;;;;;;;;5111695;28;19927;-81
2021/10/29 18:53:47;;;;;;;;;;;;;;;;;;5111790;28;19923;-80
2021/10/29 18:56:17;;;;;;;;;;;;;;;;;;5111841;28;19936;-78
2021/10/29 18:58:44;;;;;;;;;;;;;;;;;;5111690;28;19924;-78
2021/10/29 19:01:11;;;;;;;;;;;;;;;;;;5111817;28;19923;-79
2021/10/29 19:03:38;;;;;;;;;;;;;;;;;;5111932;28;19924;-78
2021/10/29 19:06:08;;;;;;;;;;;;;;;;;;5111599;28;19939;-78
2021/10/29 19:08:35;;;;;;;;;;;;;;;;;;5111345;28;19927;-80
2021/10/29 19:11:02;;;;;;;;;;;;;;;;;;5111981;28;19924;-78
2021/10/29 19:13:30;;;;;;;;;;;;;;;;;;5111492;28;19924;-79
2021/10/29 19:15:58;;;;;;;;;;;;;;;;;;5111524;28;19931;-78
2021/10/29 19:18:25;;;;;;;;;;;;;;;;;;5111486;28;20022;-78
2021/10/29 19:20:52;;;;;;;;;;;;;;;;;;5111680;28;19938;-78
2021/10/29 19:23:19;;;;;;;;;;;;;;;;;;5111498;28;19935;-80
2021/10/29 19:25:47;;;;;;;;;;;;;;;;;;5111424;28;19931;-77
2021/10/29 19:28:14;;;;;;;;;;;;;;;;;;5111844;28;19942;-80
2021/10/29 19:30:42;;;;;;;;;;;;;;;;;;5112083;28;19924;-79
2021/10/29 19:33:09;;;;;;;;;;;;;;;;;;5111531;28;19924;-78
2021/10/29 19:35:37;;;;;;;;;;;;;;;;;;5111408;28;19953;-80
2021/10/29 19:38:10;;;;;;;;;;;;;;;;;;5111459;28;20268;-80
2021/10/29 19:40:46;;;;;;;;;;;;;;;;;;5111623;28;19924;-81
2021/10/29 19:43:14;;;;;;;;;;;;;;;;;;5111895;28;20264;-78
2021/10/29 19:45:44;;;;;;;;;;;;;;;;;;5111346;28;20303;-79
2021/10/29 19:48:11;;;;;;;;;;;;;;;;;;5112227;28;19934;-78
2021/10/29 19:50:40;;;;;;;;;;;;;;;;;;5115039;28;19923;-79
2021/10/29 19:53:08;;;;;;;;;;;;;;;;;;5115668;28;19924;-81
2021/10/29 19:55:39;;;;;;;;;;;;;;;;;;5115254;28;19927;-78
2021/10/29 19:58:13;;;;;;;;;;;;;;;;;;5115199;28;19928;-77
2021/10/29 20:00:50;;;;;;;;;;;;;;;;;;5114854;28;19943;-78
2021/10/29 20:03:18;;;;;;;;;;;;;;;;;;5115320;28;19981;-78
2021/10/29 20:05:48;;;;;;;;;;;;;;;;;;5115088;28;20264;-77
2021/10/29 20:08:16;;;;;;;;;;;;;;;;;;5114933;28;19934;-79
2021/10/29 20:10:43;;;;;;;;;;;;;;;;;;5114741;28;19924;-81
2021/10/29 20:13:10;;;;;;;;;;;;;;;;;;5114845;28;19928;-78
2021/10/29 20:15:38;;;;;;;;;;;;;;;;;;5114555;28;19924;-79
2021/10/29 20:18:07;;;;;;;;;;;;;;;;;;5114660;28;19928;-79
2021/10/29 20:20:35;;;;;;;;;;;;;;;;;;5115072;28;19939;-78
2021/10/29 20:23:03;;;;;;;;;;;;;;;;;;5114852;28;19924;-80
2021/10/29 20:25:30;;;;;;;;;;;;;;;;;;5114382;28;20366;-81
2021/10/29 20:27:57;;;;;;;;;;;;;;;;;;5114487;28;19931;-78
2021/10/29 20:30:26;;;;;;;;;;;;;;;;;;5114497;28;20260;-78
2021/10/29 20:32:53;;;;;;;;;;;;;;;;;;5114853;28;19924;-82
2021/10/29 20:35:22;;;;;;;;;;;;;;;;;;5114413;28;19939;-77
2021/10/29 20:37:51;;;;;;;;;;;;;;;;;;5114080;28;19931;-78
2021/10/29 20:40:18;;;;;;;;;;;;;;;;;;5114230;28;20361;-78
2021/10/29 20:42:46;;;;;;;;;;;;;;;;;;5114201;28;20466;-81